sensor_id;sensor_type;location;lat;lon;timestamp;pressure;altitude;pressure_sealevel;temperature;humidity
35551;BME280;21655;46.056;13.616;2023-03-20T00:02:24;100775.44;;;10.46;100.00
35551;BME280;21655;46.056;13.616;2023-03-20T00:04:50;100786.19;;;10.49;100.00
35551;BME280;21655;46.056;13.616;2023-03-20T00:07:16;100782.38;;;10.42;100.00
35551;BME280;21655;46.056;13.616;2023-03-20T00:09:41;100786.00;;;10.43;100.00
35551;BME280;21655;46.056;13.616;2023-03-20T00:12:12;100778.75;;;10.50;100.00
35551;BME280;21655;46.056;13.616;2023-03-20T00:14:39;100780.31;;;10.52;100.00
35551;BME280;21655;46.056;13.616;2023-03-20T00:17:16;100776.13;;;10.48;100.00
35551;BME280;21655;46.056;13.616;2023-03-20T00:19:44;100773.03;;;10.51;100.00
35551;BME280;21655;46.056;13.616;2023-03-20T00:22:10;100774.94;;;10.51;100.00
35551;BME280;21655;46.056;13.616;2023-03-20T00:24:37;100775.44;;;10.46;100.00
35551;BME280;21655;46.056;13.616;2023-03-20T00:27:03;100767.81;;;10.40;100.00
35551;BME280;21655;46.056;13.616;2023-03-20T00:29:30;100774.91;;;10.43;100.00
35551;BME280;21655;46.056;13.616;2023-03-20T00:31:56;100772.47;;;10.40;100.00
35551;BME280;21655;46.056;13.616;2023-03-20T00:34:25;100764.34;;;10.38;100.00
35551;BME280;21655;46.056;13.616;2023-03-20T00:36:52;100770.59;;;10.40;100.00
35551;BME280;21655;46.056;13.616;2023-03-20T00:39:18;100771.78;;;10.46;100.00
35551;BME280;21655;46.056;13.616;2023-03-20T00:41:59;100757.09;;;10.53;100.00
35551;BME280;21655;46.056;13.616;2023-03-20T00:44:35;100763.50;;;10.62;100.00
35551;BME280;21655;46.056;13.616;2023-03-20T00:47:05;100760.94;;;10.60;100.00
35551;BME280;21655;46.056;13.616;2023-03-20T00:49:36;100754.66;;;10.50;100.00
35551;BME280;21655;46.056;13.616;2023-03-20T00:52:03;100763.31;;;10.39;100.00
35551;BME280;21655;46.056;13.616;2023-03-20T00:54:30;100758.97;;;10.37;100.00
35551;BME280;21655;46.056;13.616;2023-03-20T00:57:01;100757.59;;;10.41;100.00
35551;BME280;21655;46.056;13.616;2023-03-20T00:59:32;100756.72;;;10.40;100.00
35551;BME280;21655;46.056;13.616;2023-03-20T01:02:00;100752.53;;;10.36;100.00
35551;BME280;21655;46.056;13.616;2023-03-20T01:04:39;100753.44;;;10.37;100.00
35551;BME280;21655;46.056;13.616;2023-03-20T01:07:06;100748.22;;;10.42;100.00
35551;BME280;21655;46.056;13.616;2023-03-20T01:09:32;100739.75;;;10.43;100.00
35551;BME280;21655;46.056;13.616;2023-03-20T01:11:59;100736.78;;;10.45;100.00
35551;BME280;21655;46.056;13.616;2023-03-20T01:14:25;100734.75;;;10.47;100.00
35551;BME280;21655;46.056;13.616;2023-03-20T01:16:51;100730.78;;;10.57;100.00
35551;BME280;21655;46.056;13.616;2023-03-20T01:19:17;100733.69;;;10.56;100.00
35551;BME280;21655;46.056;13.616;2023-03-20T01:21:42;100741.28;;;10.38;100.00
35551;BME280;21655;46.056;13.616;2023-03-20T01:24:08;100727.75;;;10.27;100.00
35551;BME280;21655;46.056;13.616;2023-03-20T01:26:39;100733.28;;;10.27;100.00
35551;BME280;21655;46.056;13.616;2023-03-20T01:29:21;100727.41;;;10.22;100.00
35551;BME280;21655;46.056;13.616;2023-03-20T01:31:47;100727.59;;;10.28;100.00
35551;BME280;21655;46.056;13.616;2023-03-20T01:34:13;100731.41;;;10.27;100.00
35551;BME280;21655;46.056;13.616;2023-03-20T01:36:47;100714.13;;;10.41;100.00
35551;BME280;21655;46.056;13.616;2023-03-20T01:39:14;100719.81;;;10.40;100.00
35551;BME280;21655;46.056;13.616;2023-03-20T01:41:40;100719.28;;;10.36;100.00
35551;BME280;21655;46.056;13.616;2023-03-20T01:44:27;100719.97;;;10.30;100.00
35551;BME280;21655;46.056;13.616;2023-03-20T01:46:53;100710.28;;;10.26;100.00
35551;BME280;21655;46.056;13.616;2023-03-20T01:51:46;100703.00;;;10.25;100.00
35551;BME280;21655;46.056;13.616;2023-03-20T01:54:31;100698.50;;;10.24;100.00
35551;BME280;21655;46.056;13.616;2023-03-20T01:57:06;100706.63;;;10.26;100.00
35551;BME280;21655;46.056;13.616;2023-03-20T01:59:40;100705.75;;;10.25;100.00
35551;BME280;21655;46.056;13.616;2023-03-20T02:02:08;100702.31;;;10.23;100.00
35551;BME280;21655;46.056;13.616;2023-03-20T02:04:40;100699.53;;;10.23;100.00
35551;BME280;21655;46.056;13.616;2023-03-20T02:07:09;100695.88;;;10.23;100.00
35551;BME280;21655;46.056;13.616;2023-03-20T02:09:35;100692.91;;;10.16;100.00
35551;BME280;21655;46.056;13.616;2023-03-20T02:12:02;100691.00;;;10.09;100.00
35551;BME280;21655;46.056;13.616;2023-03-20T02:14:28;100694.50;;;10.19;100.00
35551;BME280;21655;46.056;13.616;2023-03-20T02:16:54;100701.72;;;10.12;100.00
35551;BME280;21655;46.056;13.616;2023-03-20T02:39:07;100692.16;;;9.98;100.00
35551;BME280;21655;46.056;13.616;2023-03-20T02:47:24;100694.91;;;9.98;100.00
35551;BME280;21655;46.056;13.616;2023-03-20T02:50:01;100695.09;;;9.97;100.00
35551;BME280;21655;46.056;13.616;2023-03-20T02:58:20;100689.72;;;9.95;100.00
35551;BME280;21655;46.056;13.616;2023-03-20T03:00:57;100690.25;;;9.99;100.00
35551;BME280;21655;46.056;13.616;2023-03-20T03:03:35;100697.53;;;10.00;100.00
35551;BME280;21655;46.056;13.616;2023-03-20T03:09:02;100690.41;;;9.97;100.00
35551;BME280;21655;46.056;13.616;2023-03-20T03:11:31;100692.84;;;10.00;100.00
35551;BME280;21655;46.056;13.616;2023-03-20T03:13:59;100694.25;;;10.04;100.00
35551;BME280;21655;46.056;13.616;2023-03-20T03:16:32;100694.25;;;10.04;100.00
35551;BME280;21655;46.056;13.616;2023-03-20T03:19:11;100694.78;;;10.08;100.00
35551;BME280;21655;46.056;13.616;2023-03-20T03:21:38;100696.34;;;10.02;100.00
35551;BME280;21655;46.056;13.616;2023-03-20T03:24:05;100693.41;;;10.04;100.00
35551;BME280;21655;46.056;13.616;2023-03-20T03:26:36;100692.03;;;10.08;100.00
35551;BME280;21655;46.056;13.616;2023-03-20T03:29:11;100694.09;;;10.06;100.00
35551;BME280;21655;46.056;13.616;2023-03-20T03:31:38;100688.19;;;10.01;100.00
35551;BME280;21655;46.056;13.616;2023-03-20T03:34:04;100690.06;;;10.00;100.00
35551;BME280;21655;46.056;13.616;2023-03-20T03:39:11;100696.03;;;10.05;100.00
35551;BME280;21655;46.056;13.616;2023-03-20T03:41:46;100693.88;;;9.91;100.00
35551;BME280;21655;46.056;13.616;2023-03-20T03:44:46;100695.94;;;9.89;100.00
35551;BME280;21655;46.056;13.616;2023-03-20T03:50:01;100696.78;;;9.90;100.00
35551;BME280;21655;46.056;13.616;2023-03-20T03:52:29;100703.22;;;9.90;100.00
35551;BME280;21655;46.056;13.616;2023-03-20T03:55:03;100702.50;;;9.88;100.00
35551;BME280;21655;46.056;13.616;2023-03-20T04:00:02;100707.88;;;9.90;100.00
35551;BME280;21655;46.056;13.616;2023-03-20T04:02:31;100699.59;;;9.98;100.00
35551;BME280;21655;46.056;13.616;2023-03-20T04:04:58;100700.09;;;9.93;100.00
35551;BME280;21655;46.056;13.616;2023-03-20T04:07:27;100701.78;;;9.86;100.00
35551;BME280;21655;46.056;13.616;2023-03-20T04:09:53;100706.19;;;9.97;100.00
35551;BME280;21655;46.056;13.616;2023-03-20T04:12:39;100705.28;;;9.88;100.00
35551;BME280;21655;46.056;13.616;2023-03-20T04:15:05;100714.25;;;9.82;100.00
35551;BME280;21655;46.056;13.616;2023-03-20T04:17:31;100705.09;;;9.90;100.00
35551;BME280;21655;46.056;13.616;2023-03-20T04:19:57;100711.34;;;9.92;100.00
35551;BME280;21655;46.056;13.616;2023-03-20T04:22:22;100714.28;;;9.90;100.00
35551;BME280;21655;46.056;13.616;2023-03-20T04:24:48;100706.81;;;9.83;100.00
35551;BME280;21655;46.056;13.616;2023-03-20T04:27:13;100707.66;;;9.83;100.00
35551;BME280;21655;46.056;13.616;2023-03-20T04:29:39;100713.88;;;9.77;100.00
35551;BME280;21655;46.056;13.616;2023-03-20T04:32:05;100711.13;;;9.77;100.00
35551;BME280;21655;46.056;13.616;2023-03-20T04:34:31;100706.94;;;9.73;100.00
35551;BME280;21655;46.056;13.616;2023-03-20T04:36:57;100708.16;;;9.71;100.00
35551;BME280;21655;46.056;13.616;2023-03-20T04:39:22;100702.44;;;9.72;100.00
35551;BME280;21655;46.056;13.616;2023-03-20T04:41:48;100705.16;;;9.64;100.00
35551;BME280;21655;46.056;13.616;2023-03-20T04:44:13;100715.19;;;9.57;100.00
35551;BME280;21655;46.056;13.616;2023-03-20T04:46:39;100704.97;;;9.58;100.00
35551;BME280;21655;46.056;13.616;2023-03-20T04:49:04;100710.00;;;9.62;100.00
35551;BME280;21655;46.056;13.616;2023-03-20T04:51:30;100703.06;;;9.58;100.00
35551;BME280;21655;46.056;13.616;2023-03-20T04:53:55;100701.66;;;9.54;100.00
35551;BME280;21655;46.056;13.616;2023-03-20T04:56:21;100699.59;;;9.56;100.00
35551;BME280;21655;46.056;13.616;2023-03-20T04:58:46;100708.41;;;9.52;100.00
35551;BME280;21655;46.056;13.616;2023-03-20T05:01:12;100705.66;;;9.60;100.00
35551;BME280;21655;46.056;13.616;2023-03-20T05:03:38;100706.00;;;9.57;100.00
35551;BME280;21655;46.056;13.616;2023-03-20T05:06:03;100699.41;;;9.50;100.00
35551;BME280;21655;46.056;13.616;2023-03-20T05:08:30;100704.06;;;9.49;100.00
35551;BME280;21655;46.056;13.616;2023-03-20T05:10:55;100700.94;;;9.52;100.00
35551;BME280;21655;46.056;13.616;2023-03-20T05:13:21;100701.28;;;9.49;100.00
35551;BME280;21655;46.056;13.616;2023-03-20T05:15:46;100704.25;;;9.48;100.00
35551;BME280;21655;46.056;13.616;2023-03-20T05:18:12;100704.06;;;9.49;100.00
35551;BME280;21655;46.056;13.616;2023-03-20T05:20:38;100709.03;;;9.46;100.00
35551;BME280;21655;46.056;13.616;2023-03-20T05:23:04;100702.19;;;9.58;100.00
35551;BME280;21655;46.056;13.616;2023-03-20T05:25:29;100700.47;;;9.57;100.00
35551;BME280;21655;46.056;13.616;2023-03-20T05:27:55;100699.41;;;9.50;100.00
35551;BME280;21655;46.056;13.616;2023-03-20T05:30:20;100700.78;;;9.54;100.00
35551;BME280;21655;46.056;13.616;2023-03-20T05:32:50;100699.22;;;9.51;100.00
35551;BME280;21655;46.056;13.616;2023-03-20T05:35:17;100692.66;;;9.52;100.00
35551;BME280;21655;46.056;13.616;2023-03-20T05:37:43;100704.13;;;9.57;100.00
35551;BME280;21655;46.056;13.616;2023-03-20T05:40:12;100701.03;;;9.68;100.00
35551;BME280;21655;46.056;13.616;2023-03-20T05:42:38;100707.25;;;9.62;100.00
35551;BME280;21655;46.056;13.616;2023-03-20T05:45:04;100704.41;;;9.54;100.00
35551;BME280;21655;46.056;13.616;2023-03-20T05:47:30;100706.66;;;9.51;100.00
35551;BME280;21655;46.056;13.616;2023-03-20T05:49:55;100707.38;;;9.61;100.00
35551;BME280;21655;46.056;13.616;2023-03-20T05:52:21;100711.19;;;9.60;100.00
35551;BME280;21655;46.056;13.616;2023-03-20T05:54:47;100702.25;;;9.74;100.00
35551;BME280;21655;46.056;13.616;2023-03-20T05:57:12;100700.72;;;9.79;100.00
35551;BME280;21655;46.056;13.616;2023-03-20T05:59:38;100705.56;;;9.77;100.00
35551;BME280;21655;46.056;13.616;2023-03-20T06:02:03;100703.34;;;9.81;100.00
35551;BME280;21655;46.056;13.616;2023-03-20T06:04:29;100702.44;;;9.72;100.00
35551;BME280;21655;46.056;13.616;2023-03-20T06:06:55;100705.22;;;9.72;100.00
35551;BME280;21655;46.056;13.616;2023-03-20T06:09:21;100701.22;;;9.75;100.00
35551;BME280;21655;46.056;13.616;2023-03-20T06:11:46;100714.44;;;9.81;100.00
35551;BME280;21655;46.056;13.616;2023-03-20T06:14:12;100711.13;;;9.85;100.00
35551;BME280;21655;46.056;13.616;2023-03-20T06:16:37;100718.44;;;9.94;100.00
35551;BME280;21655;46.056;13.616;2023-03-20T06:19:03;100722.47;;;10.00;100.00
35551;BME280;21655;46.056;13.616;2023-03-20T06:21:28;100717.91;;;9.83;100.00
35551;BME280;21655;46.056;13.616;2023-03-20T06:23:53;100711.66;;;9.81;100.00
35551;BME280;21655;46.056;13.616;2023-03-20T06:26:19;100717.50;;;9.78;100.00
35551;BME280;21655;46.056;13.616;2023-03-20T06:28:45;100720.25;;;9.70;100.00
35551;BME280;21655;46.056;13.616;2023-03-20T06:31:11;100719.22;;;9.71;100.00
35551;BME280;21655;46.056;13.616;2023-03-20T06:33:36;100724.59;;;9.72;100.00
35551;BME280;21655;46.056;13.616;2023-03-20T06:36:02;100718.53;;;9.77;100.00
35551;BME280;21655;46.056;13.616;2023-03-20T06:38:28;100718.25;;;9.88;100.00
35551;BME280;21655;46.056;13.616;2023-03-20T06:40:55;100719.56;;;10.09;100.00
35551;BME280;21655;46.056;13.616;2023-03-20T06:43:20;100728.09;;;10.16;100.00
35551;BME280;21655;46.056;13.616;2023-03-20T06:45:46;100721.50;;;10.17;100.00
35551;BME280;21655;46.056;13.616;2023-03-20T06:48:12;100725.13;;;10.09;100.00
35551;BME280;21655;46.056;13.616;2023-03-20T06:50:38;100722.00;;;10.12;100.00
35551;BME280;21655;46.056;13.616;2023-03-20T06:53:03;100724.25;;;10.09;100.00
35551;BME280;21655;46.056;13.616;2023-03-20T06:55:29;100729.28;;;10.13;100.00
35551;BME280;21655;46.056;13.616;2023-03-20T06:57:55;100738.13;;;10.17;100.00
35551;BME280;21655;46.056;13.616;2023-03-20T07:00:21;100741.09;;;10.23;100.00
35551;BME280;21655;46.056;13.616;2023-03-20T07:02:47;100737.94;;;10.18;100.00
35551;BME280;21655;46.056;13.616;2023-03-20T07:05:13;100737.28;;;10.32;100.00
35551;BME280;21655;46.056;13.616;2023-03-20T07:07:39;100736.06;;;10.27;100.00
35551;BME280;21655;46.056;13.616;2023-03-20T07:10:05;100737.97;;;10.26;100.00
35551;BME280;21655;46.056;13.616;2023-03-20T07:12:31;100737.09;;;10.26;100.00
35551;BME280;21655;46.056;13.616;2023-03-20T07:14:56;100738.38;;;10.47;100.00
35551;BME280;21655;46.056;13.616;2023-03-20T07:17:22;100735.78;;;10.62;100.00
35551;BME280;21655;46.056;13.616;2023-03-20T07:19:48;100736.69;;;10.78;100.00
35551;BME280;21655;46.056;13.616;2023-03-20T07:22:22;100738.56;;;10.94;100.00
35551;BME280;21655;46.056;13.616;2023-03-20T07:24:48;100742.22;;;11.10;100.00
35551;BME280;21655;46.056;13.616;2023-03-20T07:27:14;100734.56;;;11.20;100.00
35551;BME280;21655;46.056;13.616;2023-03-20T07:29:40;100750.00;;;11.22;100.00
35551;BME280;21655;46.056;13.616;2023-03-20T07:32:06;100752.94;;;11.45;100.00
35551;BME280;21655;46.056;13.616;2023-03-20T07:34:31;100739.56;;;11.56;100.00
35551;BME280;21655;46.056;13.616;2023-03-20T07:36:57;100745.28;;;11.71;100.00
35551;BME280;21655;46.056;13.616;2023-03-20T07:39:22;100750.63;;;11.80;100.00
35551;BME280;21655;46.056;13.616;2023-03-20T07:41:48;100757.59;;;11.60;100.00
35551;BME280;21655;46.056;13.616;2023-03-20T07:44:13;100760.38;;;11.60;100.00
35551;BME280;21655;46.056;13.616;2023-03-20T07:46:39;100752.94;;;11.61;100.00
35551;BME280;21655;46.056;13.616;2023-03-20T07:49:05;100755.53;;;11.62;100.00
35551;BME280;21655;46.056;13.616;2023-03-20T07:51:31;100751.88;;;11.70;100.00
35551;BME280;21655;46.056;13.616;2023-03-20T07:53:57;100746.44;;;11.84;100.00
35551;BME280;21655;46.056;13.616;2023-03-20T07:56:23;100747.78;;;11.96;100.00
35551;BME280;21655;46.056;13.616;2023-03-20T07:58:48;100741.41;;;11.88;100.00
35551;BME280;21655;46.056;13.616;2023-03-20T08:01:14;100748.53;;;11.82;100.00
35551;BME280;21655;46.056;13.616;2023-03-20T08:03:40;100749.72;;;11.88;100.00
35551;BME280;21655;46.056;13.616;2023-03-20T08:06:05;100754.88;;;11.99;100.00
35551;BME280;21655;46.056;13.616;2023-03-20T08:08:33;100759.81;;;11.89;100.00
35551;BME280;21655;46.056;13.616;2023-03-20T08:10:59;100764.84;;;11.77;100.00
35551;BME280;21655;46.056;13.616;2023-03-20T08:13:25;100761.22;;;11.69;100.00
35551;BME280;21655;46.056;13.616;2023-03-20T08:15:50;100761.22;;;11.77;100.00
35551;BME280;21655;46.056;13.616;2023-03-20T08:18:16;100764.56;;;11.64;100.00
35551;BME280;21655;46.056;13.616;2023-03-20T08:20:41;100761.53;;;11.90;100.00
35551;BME280;21655;46.056;13.616;2023-03-20T08:23:07;100765.16;;;11.98;100.00
35551;BME280;21655;46.056;13.616;2023-03-20T08:25:32;100765.91;;;12.23;100.00
35551;BME280;21655;46.056;13.616;2023-03-20T08:28:01;100759.53;;;12.14;100.00
35551;BME280;21655;46.056;13.616;2023-03-20T08:30:26;100766.69;;;12.39;100.00
35551;BME280;21655;46.056;13.616;2023-03-20T08:32:52;100762.81;;;12.48;100.00
35551;BME280;21655;46.056;13.616;2023-03-20T08:35:18;100771.41;;;12.31;100.00
35551;BME280;21655;46.056;13.616;2023-03-20T08:37:43;100768.97;;;12.36;100.00
35551;BME280;21655;46.056;13.616;2023-03-20T08:40:09;100762.47;;;12.43;100.00
35551;BME280;21655;46.056;13.616;2023-03-20T08:42:35;100771.88;;;12.42;100.00
35551;BME280;21655;46.056;13.616;2023-03-20T08:45:01;100771.56;;;12.37;100.00
35551;BME280;21655;46.056;13.616;2023-03-20T08:47:26;100763.59;;;12.34;100.00
35551;BME280;21655;46.056;13.616;2023-03-20T08:49:52;100770.19;;;12.33;100.00
35551;BME280;21655;46.056;13.616;2023-03-20T08:52:17;100773.75;;;12.50;100.00
35551;BME280;21655;46.056;13.616;2023-03-20T08:54:43;100766.91;;;12.60;100.00
35551;BME280;21655;46.056;13.616;2023-03-20T08:57:08;100765.41;;;12.50;100.00
35551;BME280;21655;46.056;13.616;2023-03-20T08:59:34;100756.78;;;12.67;100.00
35551;BME280;21655;46.056;13.616;2023-03-20T09:01:59;100760.88;;;12.79;100.00
35551;BME280;21655;46.056;13.616;2023-03-20T09:04:25;100762.91;;;12.85;100.00
35551;BME280;21655;46.056;13.616;2023-03-20T09:06:51;100765.00;;;12.61;100.00
35551;BME280;21655;46.056;13.616;2023-03-20T09:09:16;100769.59;;;12.99;100.00
35551;BME280;21655;46.056;13.616;2023-03-20T09:11:44;100770.88;;;12.88;100.00
35551;BME280;21655;46.056;13.616;2023-03-20T09:14:10;100761.00;;;13.08;100.00
35551;BME280;21655;46.056;13.616;2023-03-20T09:16:35;100761.06;;;13.22;100.00
35551;BME280;21655;46.056;13.616;2023-03-20T09:19:01;100760.13;;;13.30;100.00
35551;BME280;21655;46.056;13.616;2023-03-20T09:21:27;100761.03;;;13.45;100.00
35551;BME280;21655;46.056;13.616;2023-03-20T09:23:53;100760.56;;;13.56;100.00
35551;BME280;21655;46.056;13.616;2023-03-20T09:26:19;100766.91;;;13.50;100.00
35551;BME280;21655;46.056;13.616;2023-03-20T09:28:44;100767.84;;;13.42;100.00
35551;BME280;21655;46.056;13.616;2023-03-20T09:31:10;100763.22;;;13.35;100.00
35551;BME280;21655;46.056;13.616;2023-03-20T09:33:36;100770.13;;;13.39;100.00
35551;BME280;21655;46.056;13.616;2023-03-20T09:36:01;100774.47;;;13.41;100.00
35551;BME280;21655;46.056;13.616;2023-03-20T09:38:27;100759.22;;;13.52;100.00
35551;BME280;21655;46.056;13.616;2023-03-20T09:40:58;100769.34;;;13.67;100.00
35551;BME280;21655;46.056;13.616;2023-03-20T09:43:37;100759.59;;;13.63;100.00
35551;BME280;21655;46.056;13.616;2023-03-20T09:55:01;100767.03;;;14.79;100.00
35551;BME280;21655;46.056;13.616;2023-03-20T09:57:34;100760.88;;;14.83;100.00
35551;BME280;21655;46.056;13.616;2023-03-20T10:00:05;100764.59;;;15.11;100.00
35551;BME280;21655;46.056;13.616;2023-03-20T10:04:57;100753.78;;;15.43;100.00
35551;BME280;21655;46.056;13.616;2023-03-20T10:07:24;100757.94;;;15.54;100.00
35551;BME280;21655;46.056;13.616;2023-03-20T10:09:50;100752.59;;;15.86;100.00
35551;BME280;21655;46.056;13.616;2023-03-20T10:15:32;100748.44;;;16.10;100.00
35551;BME280;21655;46.056;13.616;2023-03-20T10:18:19;100755.28;;;16.35;100.00
35551;BME280;21655;46.056;13.616;2023-03-20T10:21:03;100746.31;;;16.52;100.00
35551;BME280;21655;46.056;13.616;2023-03-20T10:23:42;100741.41;;;16.27;100.00
35551;BME280;21655;46.056;13.616;2023-03-20T10:26:17;100739.38;;;16.08;100.00
35551;BME280;21655;46.056;13.616;2023-03-20T10:31:29;100732.50;;;16.44;100.00
35551;BME280;21655;46.056;13.616;2023-03-20T10:36:57;100731.50;;;16.58;100.00
35551;BME280;21655;46.056;13.616;2023-03-20T10:41:59;100726.78;;;16.25;100.00
35551;BME280;21655;46.056;13.616;2023-03-20T10:44:38;100720.75;;;16.28;100.00
35551;BME280;21655;46.056;13.616;2023-03-20T10:47:08;100715.13;;;16.15;100.00
35551;BME280;21655;46.056;13.616;2023-03-20T10:49:40;100711.88;;;16.11;100.00
35551;BME280;21655;46.056;13.616;2023-03-20T10:52:16;100709.44;;;16.36;100.00
35551;BME280;21655;46.056;13.616;2023-03-20T10:54:47;100701.06;;;16.42;100.00
35551;BME280;21655;46.056;13.616;2023-03-20T10:57:28;100708.63;;;16.55;100.00
35551;BME280;21655;46.056;13.616;2023-03-20T10:59:57;100700.69;;;16.71;100.00
35551;BME280;21655;46.056;13.616;2023-03-20T11:02:30;100697.72;;;16.79;100.00
35551;BME280;21655;46.056;13.616;2023-03-20T11:04:59;100693.38;;;16.70;100.00
35551;BME280;21655;46.056;13.616;2023-03-20T11:07:33;100692.94;;;16.60;100.00
35551;BME280;21655;46.056;13.616;2023-03-20T11:12:44;100682.13;;;16.44;100.00
35551;BME280;21655;46.056;13.616;2023-03-20T11:17:56;100686.75;;;16.24;100.00
35551;BME280;21655;46.056;13.616;2023-03-20T11:20:24;100684.75;;;16.18;100.00
35551;BME280;21655;46.056;13.616;2023-03-20T11:22:57;100676.63;;;16.30;100.00
35551;BME280;21655;46.056;13.616;2023-03-20T11:27:57;100671.75;;;16.38;100.00
35551;BME280;21655;46.056;13.616;2023-03-20T11:30:23;100666.00;;;16.53;100.00
35551;BME280;21655;46.056;13.616;2023-03-20T11:32:53;100667.44;;;16.36;100.00
35551;BME280;21655;46.056;13.616;2023-03-20T11:35:28;100662.34;;;16.59;100.00
35551;BME280;21655;46.056;13.616;2023-03-20T11:38:19;100658.72;;;16.78;100.00
35551;BME280;21655;46.056;13.616;2023-03-20T11:40:46;100657.19;;;16.62;100.00
35551;BME280;21655;46.056;13.616;2023-03-20T11:43:26;100651.78;;;16.61;100.00
35551;BME280;21655;46.056;13.616;2023-03-20T11:46:00;100638.44;;;16.56;100.00
35551;BME280;21655;46.056;13.616;2023-03-20T11:48:43;100634.16;;;16.67;100.00
35551;BME280;21655;46.056;13.616;2023-03-20T11:51:17;100635.41;;;16.51;100.00
35551;BME280;21655;46.056;13.616;2023-03-20T11:56:14;100621.22;;;16.59;100.00
35551;BME280;21655;46.056;13.616;2023-03-20T11:58:55;100620.81;;;16.82;100.00
35551;BME280;21655;46.056;13.616;2023-03-20T12:01:22;100615.00;;;17.15;100.00
35551;BME280;21655;46.056;13.616;2023-03-20T12:04:10;100617.56;;;17.10;100.00
35551;BME280;21655;46.056;13.616;2023-03-20T12:09:24;100614.59;;;17.38;100.00
35551;BME280;21655;46.056;13.616;2023-03-20T12:12:00;100601.38;;;17.51;100.00
35551;BME280;21655;46.056;13.616;2023-03-20T12:20:35;100600.53;;;17.25;100.00
35551;BME280;21655;46.056;13.616;2023-03-20T12:23:10;100597.75;;;17.31;100.00
35551;BME280;21655;46.056;13.616;2023-03-20T12:28:29;100594.91;;;17.57;100.00
35551;BME280;21655;46.056;13.616;2023-03-20T12:33:39;100589.88;;;17.79;100.00
35551;BME280;21655;46.056;13.616;2023-03-20T12:36:17;100585.66;;;17.37;100.00
35551;BME280;21655;46.056;13.616;2023-03-20T12:38:46;100587.16;;;17.33;100.00
35551;BME280;21655;46.056;13.616;2023-03-20T12:41:23;100584.13;;;17.28;100.00
35551;BME280;21655;46.056;13.616;2023-03-20T12:56:59;100574.69;;;16.84;100.00
35551;BME280;21655;46.056;13.616;2023-03-20T13:02:33;100575.34;;;16.73;100.00
35551;BME280;21655;46.056;13.616;2023-03-20T13:10:36;100560.16;;;16.29;100.00
35551;BME280;21655;46.056;13.616;2023-03-20T13:21:02;100563.63;;;16.24;100.00
35551;BME280;21655;46.056;13.616;2023-03-20T13:26:43;100566.00;;;16.34;100.00
35551;BME280;21655;46.056;13.616;2023-03-20T13:29:29;100565.06;;;16.14;100.00
35551;BME280;21655;46.056;13.616;2023-03-20T13:34:55;100568.56;;;16.16;100.00
35551;BME280;21655;46.056;13.616;2023-03-20T13:40:28;100564.22;;;16.13;100.00
35551;BME280;21655;46.056;13.616;2023-03-20T13:43:27;100553.25;;;16.18;100.00
35551;BME280;21655;46.056;13.616;2023-03-20T13:46:02;100558.59;;;16.07;100.00
35551;BME280;21655;46.056;13.616;2023-03-20T14:01:55;100544.75;;;16.39;100.00
35551;BME280;21655;46.056;13.616;2023-03-20T14:04:25;100539.34;;;16.38;100.00
35551;BME280;21655;46.056;13.616;2023-03-20T14:06:52;100540.44;;;16.50;100.00
35551;BME280;21655;46.056;13.616;2023-03-20T14:09:35;100538.94;;;16.73;100.00
35551;BME280;21655;46.056;13.616;2023-03-20T14:12:09;100537.88;;;16.81;100.00
35551;BME280;21655;46.056;13.616;2023-03-20T14:14:42;100540.03;;;16.72;100.00
35551;BME280;21655;46.056;13.616;2023-03-20T14:17:19;100538.06;;;16.79;100.00
35551;BME280;21655;46.056;13.616;2023-03-20T14:19:47;100539.59;;;16.69;100.00
35551;BME280;21655;46.056;13.616;2023-03-20T14:22:26;100545.16;;;16.49;100.00
35551;BME280;21655;46.056;13.616;2023-03-20T14:25:16;100539.97;;;16.40;100.00
35551;BME280;21655;46.056;13.616;2023-03-20T14:28:06;100535.03;;;16.35;100.00
35551;BME280;21655;46.056;13.616;2023-03-20T14:30:48;100531.59;;;16.53;100.00
35551;BME280;21655;46.056;13.616;2023-03-20T14:35:51;100530.75;;;16.59;100.00
35551;BME280;21655;46.056;13.616;2023-03-20T14:38:38;100525.78;;;16.61;100.00
35551;BME280;21655;46.056;13.616;2023-03-20T14:41:16;100524.69;;;16.62;100.00
35551;BME280;21655;46.056;13.616;2023-03-20T14:51:59;100522.13;;;16.54;100.00
35551;BME280;21655;46.056;13.616;2023-03-20T14:54:29;100527.50;;;16.42;100.00
35551;BME280;21655;46.056;13.616;2023-03-20T14:57:07;100530.91;;;16.31;100.00
35551;BME280;21655;46.056;13.616;2023-03-20T14:59:33;100542.72;;;16.27;100.00
35551;BME280;21655;46.056;13.616;2023-03-20T15:02:00;100535.16;;;16.14;100.00
35551;BME280;21655;46.056;13.616;2023-03-20T15:04:41;100553.47;;;16.10;100.00
35551;BME280;21655;46.056;13.616;2023-03-20T15:07:14;100550.66;;;16.04;100.00
35551;BME280;21655;46.056;13.616;2023-03-20T15:09:43;100548.91;;;16.03;100.00
35551;BME280;21655;46.056;13.616;2023-03-20T15:12:12;100547.38;;;15.94;100.00
35551;BME280;21655;46.056;13.616;2023-03-20T15:17:22;100553.81;;;15.88;100.00
35551;BME280;21655;46.056;13.616;2023-03-20T15:19:48;100543.88;;;15.79;100.00
35551;BME280;21655;46.056;13.616;2023-03-20T15:22:18;100545.16;;;15.70;100.00